sensor_id;sensor_type;location;lat;lon;timestamp;pressure;altitude;pressure_sealevel;temperature
45393;BMP280;31129;44.810;10.334;2023-07-31T00:02:17;100395.25;;;27.30
45393;BMP280;31129;44.810;10.334;2023-07-31T00:04:43;100388.78;;;27.27
45393;BMP280;31129;44.810;10.334;2023-07-31T00:07:08;100396.81;;;27.11
45393;BMP280;31129;44.810;10.334;2023-07-31T00:09:34;100403.75;;;27.10
45393;BMP280;31129;44.810;10.334;2023-07-31T00:11:59;100397.91;;;27.28
45393;BMP280;31129;44.810;10.334;2023-07-31T00:14:25;100389.59;;;27.18
45393;BMP280;31129;44.810;10.334;2023-07-31T00:16:50;100396.81;;;27.11
45393;BMP280;31129;44.810;10.334;2023-07-31T00:19:16;100400.84;;;26.99
45393;BMP280;31129;44.810;10.334;2023-07-31T00:21:41;100397.63;;;27.02
45393;BMP280;31129;44.810;10.334;2023-07-31T00:24:07;100390.34;;;27.09
45393;BMP280;31129;44.810;10.334;2023-07-31T00:26:32;100399.59;;;26.90
45393;BMP280;31129;44.810;10.334;2023-07-31T00:28:58;100402.22;;;26.98
45393;BMP280;31129;44.810;10.334;2023-07-31T00:31:23;100404.44;;;26.90
45393;BMP280;31129;44.810;10.334;2023-07-31T00:33:49;100414.78;;;26.87
45393;BMP280;31129;44.810;10.334;2023-07-31T00:36:14;100410.47;;;26.96
45393;BMP280;31129;44.810;10.334;2023-07-31T00:38:41;100412.41;;;26.93
45393;BMP280;31129;44.810;10.334;2023-07-31T00:41:07;100406.19;;;26.95
45393;BMP280;31129;44.810;10.334;2023-07-31T00:43:32;100409.50;;;26.72
45393;BMP280;31129;44.810;10.334;2023-07-31T00:45:58;100410.84;;;26.71
45393;BMP280;31129;44.810;10.334;2023-07-31T00:48:24;100418.94;;;26.67
45393;BMP280;31129;44.810;10.334;2023-07-31T00:50:50;100423.34;;;26.70
45393;BMP280;31129;44.810;10.334;2023-07-31T00:53:18;100424.41;;;26.65
45393;BMP280;31129;44.810;10.334;2023-07-31T00:55:44;100422.94;;;26.64
45393;BMP280;31129;44.810;10.334;2023-07-31T00:58:10;100426.16;;;26.70
45393;BMP280;31129;44.810;10.334;2023-07-31T01:00:38;100429.13;;;26.62
45393;BMP280;31129;44.810;10.334;2023-07-31T01:03:03;100428.97;;;26.70
45393;BMP280;31129;44.810;10.334;2023-07-31T01:08:25;100429.00;;;26.51
45393;BMP280;31129;44.810;10.334;2023-07-31T01:11:02;100432.66;;;26.53
45393;BMP280;31129;44.810;10.334;2023-07-31T01:13:30;100435.63;;;26.55
45393;BMP280;31129;44.810;10.334;2023-07-31T01:15:55;100431.97;;;26.43
45393;BMP280;31129;44.810;10.334;2023-07-31T01:18:21;100433.88;;;26.41
45393;BMP280;31129;44.810;10.334;2023-07-31T01:20:54;100434.19;;;26.35
45393;BMP280;31129;44.810;10.334;2023-07-31T01:26:12;100425.63;;;26.23
45393;BMP280;31129;44.810;10.334;2023-07-31T01:28:59;100414.00;;;26.17
45393;BMP280;31129;44.810;10.334;2023-07-31T01:31:28;100413.09;;;26.24
45393;BMP280;31129;44.810;10.334;2023-07-31T01:33:56;100417.09;;;26.21
45393;BMP280;31129;44.810;10.334;2023-07-31T01:36:23;100418.56;;;26.22
45393;BMP280;31129;44.810;10.334;2023-07-31T01:38:49;100414.44;;;26.14
45393;BMP280;31129;44.810;10.334;2023-07-31T01:41:18;100414.91;;;26.20
45393;BMP280;31129;44.810;10.334;2023-07-31T01:43:45;100413.25;;;26.17
45393;BMP280;31129;44.810;10.334;2023-07-31T01:46:11;100408.41;;;26.27
45393;BMP280;31129;44.810;10.334;2023-07-31T01:48:36;100414.41;;;26.23
45393;BMP280;31129;44.810;10.334;2023-07-31T01:51:02;100400.00;;;26.17
45393;BMP280;31129;44.810;10.334;2023-07-31T01:53:30;100398.41;;;26.14
45393;BMP280;31129;44.810;10.334;2023-07-31T01:55:55;100403.56;;;26.28
45393;BMP280;31129;44.810;10.334;2023-07-31T01:58:21;100401.34;;;26.16
45393;BMP280;31129;44.810;10.334;2023-07-31T02:00:46;100391.94;;;26.12
45393;BMP280;31129;44.810;10.334;2023-07-31T02:03:12;100402.97;;;26.00
45393;BMP280;31129;44.810;10.334;2023-07-31T02:05:44;100399.25;;;26.07
45393;BMP280;31129;44.810;10.334;2023-07-31T02:08:11;100395.28;;;25.91
45393;BMP280;31129;44.810;10.334;2023-07-31T02:10:37;100393.84;;;25.90
45393;BMP280;31129;44.810;10.334;2023-07-31T02:13:02;100397.50;;;26.02
45393;BMP280;31129;44.810;10.334;2023-07-31T02:15:32;100406.03;;;25.95
45393;BMP280;31129;44.810;10.334;2023-07-31T02:17:58;100414.75;;;25.99
45393;BMP280;31129;44.810;10.334;2023-07-31T02:20:24;100403.84;;;25.84
45393;BMP280;31129;44.810;10.334;2023-07-31T02:22:50;100403.97;;;25.76
45393;BMP280;31129;44.810;10.334;2023-07-31T02:25:16;100406.31;;;25.79
45393;BMP280;31129;44.810;10.334;2023-07-31T02:27:42;100404.84;;;25.78
45393;BMP280;31129;44.810;10.334;2023-07-31T02:30:08;100410.31;;;25.76
45393;BMP280;31129;44.810;10.334;2023-07-31T02:32:33;100405.91;;;25.83
45393;BMP280;31129;44.810;10.334;2023-07-31T02:34:59;100395.88;;;25.80
45393;BMP280;31129;44.810;10.334;2023-07-31T02:37:25;100400.56;;;25.68
45393;BMP280;31129;44.810;10.334;2023-07-31T02:39:51;100392.91;;;25.59
45393;BMP280;31129;44.810;10.334;2023-07-31T02:42:16;100392.47;;;25.62
45393;BMP280;31129;44.810;10.334;2023-07-31T02:44:42;100398.63;;;25.61
45393;BMP280;31129;44.810;10.334;2023-07-31T02:47:07;100390.41;;;25.53
45393;BMP280;31129;44.810;10.334;2023-07-31T02:49:33;100396.25;;;25.48
45393;BMP280;31129;44.810;10.334;2023-07-31T02:51:58;100396.13;;;25.65
45393;BMP280;31129;44.810;10.334;2023-07-31T02:54:24;100403.00;;;25.45
45393;BMP280;31129;44.810;10.334;2023-07-31T02:56:50;100403.53;;;25.33
45393;BMP280;31129;44.810;10.334;2023-07-31T02:59:16;100399.19;;;25.40
45393;BMP280;31129;44.810;10.334;2023-07-31T03:01:42;100400.50;;;25.39
45393;BMP280;31129;44.810;10.334;2023-07-31T03:04:07;100402.25;;;25.44
45393;BMP280;31129;44.810;10.334;2023-07-31T03:06:33;100411.38;;;25.45
45393;BMP280;31129;44.810;10.334;2023-07-31T03:08:58;100407.84;;;25.44
45393;BMP280;31129;44.810;10.334;2023-07-31T03:11:24;100411.94;;;25.33
45393;BMP280;31129;44.810;10.334;2023-07-31T03:13:49;100410.75;;;25.27
45393;BMP280;31129;44.810;10.334;2023-07-31T03:16:15;100415.31;;;25.22
45393;BMP280;31129;44.810;10.334;2023-07-31T03:18:40;100417.94;;;25.20
45393;BMP280;31129;44.810;10.334;2023-07-31T03:21:06;100410.81;;;25.37
45393;BMP280;31129;44.810;10.334;2023-07-31T03:23:32;100410.97;;;25.12
45393;BMP280;31129;44.810;10.334;2023-07-31T03:25:59;100407.66;;;25.23
45393;BMP280;31129;44.810;10.334;2023-07-31T03:28:27;100401.66;;;25.26
45393;BMP280;31129;44.810;10.334;2023-07-31T03:30:53;100407.22;;;25.26
45393;BMP280;31129;44.810;10.334;2023-07-31T03:33:19;100413.59;;;25.10
45393;BMP280;31129;44.810;10.334;2023-07-31T03:35:45;100404.53;;;25.19
45393;BMP280;31129;44.810;10.334;2023-07-31T03:38:10;100398.22;;;25.18
45393;BMP280;31129;44.810;10.334;2023-07-31T03:40:36;100405.97;;;25.10
45393;BMP280;31129;44.810;10.334;2023-07-31T03:43:01;100400.44;;;25.20
45393;BMP280;31129;44.810;10.334;2023-07-31T03:45:27;100403.22;;;25.20
45393;BMP280;31129;44.810;10.334;2023-07-31T03:47:53;100395.53;;;25.11
45393;BMP280;31129;44.810;10.334;2023-07-31T03:50:20;100398.34;;;25.11
45393;BMP280;31129;44.810;10.334;2023-07-31T03:52:46;100407.44;;;25.11
45393;BMP280;31129;44.810;10.334;2023-07-31T03:55:11;100406.25;;;25.05
45393;BMP280;31129;44.810;10.334;2023-07-31T03:57:37;100404.66;;;25.11
45393;BMP280;31129;44.810;10.334;2023-07-31T04:00:03;100408.72;;;25.01
45393;BMP280;31129;44.810;10.334;2023-07-31T04:02:37;100400.81;;;25.07
45393;BMP280;31129;44.810;10.334;2023-07-31T04:05:03;100410.03;;;25.00
45393;BMP280;31129;44.810;10.334;2023-07-31T04:07:28;100411.78;;;24.95
45393;BMP280;31129;44.810;10.334;2023-07-31T04:09:54;100413.84;;;24.95
45393;BMP280;31129;44.810;10.334;2023-07-31T04:12:19;100403.41;;;24.95
45393;BMP280;31129;44.810;10.334;2023-07-31T04:14:45;100403.72;;;24.99
45393;BMP280;31129;44.810;10.334;2023-07-31T04:17:10;100405.47;;;24.95
45393;BMP280;31129;44.810;10.334;2023-07-31T04:19:36;100406.03;;;24.93
45393;BMP280;31129;44.810;10.334;2023-07-31T04:22:02;100403.03;;;24.81
45393;BMP280;31129;44.810;10.334;2023-07-31T04:24:27;100410.75;;;24.91
45393;BMP280;31129;44.810;10.334;2023-07-31T04:26:53;100408.47;;;24.89
45393;BMP280;31129;44.810;10.334;2023-07-31T04:29:19;100414.53;;;25.12
45393;BMP280;31129;44.810;10.334;2023-07-31T04:31:45;100420.53;;;25.09
45393;BMP280;31129;44.810;10.334;2023-07-31T04:34:11;100415.88;;;25.21
45393;BMP280;31129;44.810;10.334;2023-07-31T04:36:37;100411.84;;;25.05
45393;BMP280;31129;44.810;10.334;2023-07-31T04:39:02;100414.16;;;24.99
45393;BMP280;31129;44.810;10.334;2023-07-31T04:41:28;100415.31;;;24.96
45393;BMP280;31129;44.810;10.334;2023-07-31T04:43:53;100419.16;;;25.00
45393;BMP280;31129;44.810;10.334;2023-07-31T04:46:19;100414.16;;;24.99
45393;BMP280;31129;44.810;10.334;2023-07-31T04:48:44;100422.81;;;25.03
45393;BMP280;31129;44.810;10.334;2023-07-31T04:51:10;100424.25;;;25.21
45393;BMP280;31129;44.810;10.334;2023-07-31T04:53:36;100420.28;;;25.24
45393;BMP280;31129;44.810;10.334;2023-07-31T04:56:01;100418.41;;;25.26
45393;BMP280;31129;44.810;10.334;2023-07-31T04:58:27;100415.31;;;25.22
45393;BMP280;31129;44.810;10.334;2023-07-31T05:00:54;100414.72;;;25.24
45393;BMP280;31129;44.810;10.334;2023-07-31T05:03:19;100424.28;;;25.30
45393;BMP280;31129;44.810;10.334;2023-07-31T05:05:45;100421.06;;;25.34
45393;BMP280;31129;44.810;10.334;2023-07-31T05:08:10;100429.63;;;25.36
45393;BMP280;31129;44.810;10.334;2023-07-31T05:10:36;100434.44;;;25.26
45393;BMP280;31129;44.810;10.334;2023-07-31T05:13:01;100433.09;;;25.27
45393;BMP280;31129;44.810;10.334;2023-07-31T05:15:28;100426.84;;;25.36
45393;BMP280;31129;44.810;10.334;2023-07-31T05:17:53;100433.91;;;25.47
45393;BMP280;31129;44.810;10.334;2023-07-31T05:20:19;100438.50;;;25.52
45393;BMP280;31129;44.810;10.334;2023-07-31T05:22:44;100429.25;;;25.59
45393;BMP280;31129;44.810;10.334;2023-07-31T05:25:10;100433.78;;;25.54
45393;BMP280;31129;44.810;10.334;2023-07-31T05:27:35;100430.13;;;25.52
45393;BMP280;31129;44.810;10.334;2023-07-31T05:30:01;100440.72;;;25.63
45393;BMP280;31129;44.810;10.334;2023-07-31T05:32:26;100444.00;;;25.69
45393;BMP280;31129;44.810;10.334;2023-07-31T05:34:52;100448.41;;;25.72
45393;BMP280;31129;44.810;10.334;2023-07-31T05:37:18;100445.50;;;25.89
45393;BMP280;31129;44.810;10.334;2023-07-31T05:39:44;100450.91;;;25.68
45393;BMP280;31129;44.810;10.334;2023-07-31T05:42:10;100445.94;;;25.95
45393;BMP280;31129;44.810;10.334;2023-07-31T05:44:35;100450.94;;;25.87
45393;BMP280;31129;44.810;10.334;2023-07-31T05:47:01;100463.16;;;25.92
45393;BMP280;31129;44.810;10.334;2023-07-31T05:49:26;100455.66;;;25.94
45393;BMP280;31129;44.810;10.334;2023-07-31T05:51:52;100463.47;;;25.96
45393;BMP280;31129;44.810;10.334;2023-07-31T05:54:17;100466.41;;;26.07
45393;BMP280;31129;44.810;10.334;2023-07-31T05:56:43;100465.41;;;26.22
45393;BMP280;31129;44.810;10.334;2023-07-31T05:59:09;100469.81;;;26.25
45393;BMP280;31129;44.810;10.334;2023-07-31T06:01:35;100468.22;;;26.12
45393;BMP280;31129;44.810;10.334;2023-07-31T06:04:01;100476.72;;;26.24
45393;BMP280;31129;44.810;10.334;2023-07-31T06:06:27;100473.38;;;26.45
45393;BMP280;31129;44.810;10.334;2023-07-31T06:08:53;100473.94;;;26.72
45393;BMP280;31129;44.810;10.334;2023-07-31T06:11:20;100480.88;;;26.52
45393;BMP280;31129;44.810;10.334;2023-07-31T06:13:45;100487.47;;;26.56
45393;BMP280;31129;44.810;10.334;2023-07-31T06:16:13;100482.91;;;26.70
45393;BMP280;31129;44.810;10.334;2023-07-31T06:18:38;100491.47;;;26.73
45393;BMP280;31129;44.810;10.334;2023-07-31T06:21:04;100497.47;;;26.98
45393;BMP280;31129;44.810;10.334;2023-07-31T06:23:30;100493.47;;;27.01
45393;BMP280;31129;44.810;10.334;2023-07-31T06:25:55;100495.13;;;26.85
45393;BMP280;31129;44.810;10.334;2023-07-31T06:28:21;100492.06;;;26.71
45393;BMP280;31129;44.810;10.334;2023-07-31T06:30:46;100491.31;;;26.90
45393;BMP280;31129;44.810;10.334;2023-07-31T06:33:12;100499.09;;;27.01
45393;BMP280;31129;44.810;10.334;2023-07-31T06:35:38;100497.13;;;27.13
45393;BMP280;31129;44.810;10.334;2023-07-31T06:38:03;100497.72;;;27.02
45393;BMP280;31129;44.810;10.334;2023-07-31T06:40:29;100498.34;;;27.10
45393;BMP280;31129;44.810;10.334;2023-07-31T06:42:55;100502.03;;;27.03
45393;BMP280;31129;44.810;10.334;2023-07-31T06:45:20;100502.59;;;27.01
45393;BMP280;31129;44.810;10.334;2023-07-31T06:47:47;100505.66;;;27.15
45393;BMP280;31129;44.810;10.334;2023-07-31T06:50:12;100511.78;;;27.33
45393;BMP280;31129;44.810;10.334;2023-07-31T06:52:40;100513.72;;;27.30
45393;BMP280;31129;44.810;10.334;2023-07-31T06:55:20;100517.13;;;27.38
45393;BMP280;31129;44.810;10.334;2023-07-31T06:57:47;100511.50;;;27.38
45393;BMP280;31129;44.810;10.334;2023-07-31T07:00:12;100510.34;;;27.32
45393;BMP280;31129;44.810;10.334;2023-07-31T07:02:38;100511.06;;;27.32
45393;BMP280;31129;44.810;10.334;2023-07-31T07:05:04;100516.84;;;27.34
45393;BMP280;31129;44.810;10.334;2023-07-31T07:07:29;100526.81;;;27.47
45393;BMP280;31129;44.810;10.334;2023-07-31T07:09:55;100527.25;;;27.74
45393;BMP280;31129;44.810;10.334;2023-07-31T07:12:20;100519.78;;;27.67
45393;BMP280;31129;44.810;10.334;2023-07-31T07:14:46;100539.25;;;27.96
45393;BMP280;31129;44.810;10.334;2023-07-31T07:17:13;100535.88;;;27.97
45393;BMP280;31129;44.810;10.334;2023-07-31T07:19:41;100536.66;;;27.88
45393;BMP280;31129;44.810;10.334;2023-07-31T07:22:07;100539.88;;;27.94
45393;BMP280;31129;44.810;10.334;2023-07-31T07:24:33;100552.34;;;27.82
45393;BMP280;31129;44.810;10.334;2023-07-31T07:26:58;100549.81;;;28.07
45393;BMP280;31129;44.810;10.334;2023-07-31T07:29:24;100549.69;;;28.26
45393;BMP280;31129;44.810;10.334;2023-07-31T07:31:50;100540.59;;;28.37
45393;BMP280;31129;44.810;10.334;2023-07-31T07:34:15;100528.38;;;28.11
45393;BMP280;31129;44.810;10.334;2023-07-31T07:36:41;100530.97;;;28.19
45393;BMP280;31129;44.810;10.334;2023-07-31T07:39:08;100522.56;;;28.19
45393;BMP280;31129;44.810;10.334;2023-07-31T07:41:33;100521.75;;;28.28
45393;BMP280;31129;44.810;10.334;2023-07-31T07:43:59;100523.75;;;28.37
45393;BMP280;31129;44.810;10.334;2023-07-31T07:46:24;100522.63;;;28.63
45393;BMP280;31129;44.810;10.334;2023-07-31T07:48:50;100525.53;;;28.66
45393;BMP280;31129;44.810;10.334;2023-07-31T07:51:16;100528.47;;;28.56
45393;BMP280;31129;44.810;10.334;2023-07-31T07:53:41;100526.38;;;28.56
45393;BMP280;31129;44.810;10.334;2023-07-31T07:56:07;100520.41;;;28.62
45393;BMP280;31129;44.810;10.334;2023-07-31T07:58:33;100523.91;;;28.51
45393;BMP280;31129;44.810;10.334;2023-07-31T08:00:58;100527.13;;;28.24
45393;BMP280;31129;44.810;10.334;2023-07-31T08:03:42;100517.19;;;28.44
45393;BMP280;31129;44.810;10.334;2023-07-31T08:06:09;100528.34;;;28.66
45393;BMP280;31129;44.810;10.334;2023-07-31T08:08:35;100516.41;;;28.77
45393;BMP280;31129;44.810;10.334;2023-07-31T08:11:01;100525.63;;;28.89
45393;BMP280;31129;44.810;10.334;2023-07-31T08:13:27;100515.47;;;28.95
45393;BMP280;31129;44.810;10.334;2023-07-31T08:15:52;100524.53;;;28.94
45393;BMP280;31129;44.810;10.334;2023-07-31T08:18:18;100537.31;;;28.74
45393;BMP280;31129;44.810;10.334;2023-07-31T08:20:44;100532.75;;;28.57
45393;BMP280;31129;44.810;10.334;2023-07-31T08:23:09;100526.13;;;28.85
45393;BMP280;31129;44.810;10.334;2023-07-31T08:25:35;100515.47;;;28.95
45393;BMP280;31129;44.810;10.334;2023-07-31T08:28:02;100508.91;;;29.02
45393;BMP280;31129;44.810;10.334;2023-07-31T08:30:28;100518.81;;;29.15
45393;BMP280;31129;44.810;10.334;2023-07-31T08:32:54;100507.56;;;29.15
45393;BMP280;31129;44.810;10.334;2023-07-31T08:35:19;100510.97;;;29.25
45393;BMP280;31129;44.810;10.334;2023-07-31T08:37:45;100512.09;;;29.43
45393;BMP280;31129;44.810;10.334;2023-07-31T08:40:10;100517.72;;;29.43
45393;BMP280;31129;44.810;10.334;2023-07-31T08:42:46;100513.06;;;29.48
45393;BMP280;31129;44.810;10.334;2023-07-31T08:45:17;100510.88;;;29.46
45393;BMP280;31129;44.810;10.334;2023-07-31T08:47:48;100514.25;;;29.68
45393;BMP280;31129;44.810;10.334;2023-07-31T08:50:15;100510.84;;;29.70
45393;BMP280;31129;44.810;10.334;2023-07-31T08:52:41;100513.19;;;29.62
45393;BMP280;31129;44.810;10.334;2023-07-31T08:55:07;100503.53;;;29.65
45393;BMP280;31129;44.810;10.334;2023-07-31T08:57:36;100500.19;;;29.68
45393;BMP280;31129;44.810;10.334;2023-07-31T09:00:04;100500.53;;;29.74
45393;BMP280;31129;44.810;10.334;2023-07-31T09:02:46;100504.94;;;29.77
45393;BMP280;31129;44.810;10.334;2023-07-31T09:05:14;100497.47;;;29.93
45393;BMP280;31129;44.810;10.334;2023-07-31T09:07:40;100502.19;;;29.91
45393;BMP280;31129;44.810;10.334;2023-07-31T09:10:06;100502.88;;;30.15
45393;BMP280;31129;44.810;10.334;2023-07-31T09:12:32;100502.63;;;30.22
45393;BMP280;31129;44.810;10.334;2023-07-31T09:14:58;100494.53;;;30.17
45393;BMP280;31129;44.810;10.334;2023-07-31T09:17:34;100499.59;;;30.06
45393;BMP280;31129;44.810;10.334;2023-07-31T09:20:18;100497.41;;;30.05
45393;BMP280;31129;44.810;10.334;2023-07-31T09:22:45;100491.38;;;30.36
45393;BMP280;31129;44.810;10.334;2023-07-31T09:25:25;100497.00;;;30.22
45393;BMP280;31129;44.810;10.334;2023-07-31T09:27:58;100498.66;;;30.27
45393;BMP280;31129;44.810;10.334;2023-07-31T09:30:24;100498.66;;;30.52
45393;BMP280;31129;44.810;10.334;2023-07-31T09:33:05;100494.84;;;30.48
45393;BMP280;31129;44.810;10.334;2023-07-31T09:35:35;100499.19;;;30.62
45393;BMP280;31129;44.810;10.334;2023-07-31T09:38:07;100496.66;;;30.94
45393;BMP280;31129;44.810;10.334;2023-07-31T09:40:35;100489.41;;;30.77
45393;BMP280;31129;44.810;10.334;2023-07-31T09:43:09;100498.16;;;30.56
45393;BMP280;31129;44.810;10.334;2023-07-31T09:45:42;100496.00;;;30.82
45393;BMP280;31129;44.810;10.334;2023-07-31T09:50:38;100499.53;;;30.82
45393;BMP280;31129;44.810;10.334;2023-07-31T09:53:04;100493.28;;;30.45
45393;BMP280;31129;44.810;10.334;2023-07-31T09:55:30;100484.50;;;30.64
45393;BMP280;31129;44.810;10.334;2023-07-31T09:58:05;100487.41;;;30.66
45393;BMP280;31129;44.810;10.334;2023-07-31T10:00:31;100487.44;;;30.80
45393;BMP280;31129;44.810;10.334;2023-07-31T10:03:05;100499.16;;;30.88
45393;BMP280;31129;44.810;10.334;2023-07-31T10:05:35;100483.91;;;30.93
45393;BMP280;31129;44.810;10.334;2023-07-31T10:08:01;100480.88;;;30.89
45393;BMP280;31129;44.810;10.334;2023-07-31T10:10:28;100489.78;;;31.10
45393;BMP280;31129;44.810;10.334;2023-07-31T10:12:55;100483.50;;;31.12
45393;BMP280;31129;44.810;10.334;2023-07-31T10:15:21;100486.09;;;30.94
45393;BMP280;31129;44.810;10.334;2023-07-31T10:17:48;100478.59;;;31.12
45393;BMP280;31129;44.810;10.334;2023-07-31T10:20:14;100473.59;;;31.25
45393;BMP280;31129;44.810;10.334;2023-07-31T10:22:42;100478.91;;;31.19
45393;BMP280;31129;44.810;10.334;2023-07-31T10:25:08;100478.56;;;31.40
45393;BMP280;31129;44.810;10.334;2023-07-31T10:27:36;100472.53;;;31.45
45393;BMP280;31129;44.810;10.334;2023-07-31T10:30:24;100474.41;;;31.27
45393;BMP280;31129;44.810;10.334;2023-07-31T10:32:51;100471.16;;;31.46
45393;BMP280;31129;44.810;10.334;2023-07-31T10:35:17;100467.91;;;31.52
45393;BMP280;31129;44.810;10.334;2023-07-31T10:37:43;100460.50;;;31.45
45393;BMP280;31129;44.810;10.334;2023-07-31T10:40:16;100458.78;;;31.67
45393;BMP280;31129;44.810;10.334;2023-07-31T10:42:49;100472.25;;;31.82
45393;BMP280;31129;44.810;10.334;2023-07-31T10:45:33;100472.81;;;31.94
45393;BMP280;31129;44.810;10.334;2023-07-31T10:48:06;100468.28;;;32.03
45393;BMP280;31129;44.810;10.334;2023-07-31T10:50:37;100461.31;;;32.20
45393;BMP280;31129;44.810;10.334;2023-07-31T10:53:03;100459.47;;;32.10
45393;BMP280;31129;44.810;10.334;2023-07-31T10:58:13;100451.53;;;32.07
45393;BMP280;31129;44.810;10.334;2023-07-31T11:00:41;100461.47;;;32.08
45393;BMP280;31129;44.810;10.334;2023-07-31T11:03:13;100455.75;;;32.22
45393;BMP280;31129;44.810;10.334;2023-07-31T11:05:53;100452.72;;;32.17
45393;BMP280;31129;44.810;10.334;2023-07-31T11:08:29;100453.91;;;31.83
45393;BMP280;31129;44.810;10.334;2023-07-31T11:13:29;100457.53;;;32.15
45393;BMP280;31129;44.810;10.334;2023-07-31T11:15:55;100454.03;;;32.30
45393;BMP280;31129;44.810;10.334;2023-07-31T11:18:21;100447.66;;;32.30
45393;BMP280;31129;44.810;10.334;2023-07-31T11:20:47;100451.22;;;32.61
45393;BMP280;31129;44.810;10.334;2023-07-31T11:23:13;100441.56;;;32.66
45393;BMP280;31129;44.810;10.334;2023-07-31T11:25:40;100440.06;;;32.50
45393;BMP280;31129;44.810;10.334;2023-07-31T11:28:10;100438.00;;;32.50
45393;BMP280;31129;44.810;10.334;2023-07-31T11:30:37;100434.97;;;32.62
45393;BMP280;31129;44.810;10.334;2023-07-31T11:33:04;100437.72;;;32.76
45393;BMP280;31129;44.810;10.334;2023-07-31T11:35:35;100427.22;;;32.78
45393;BMP280;31129;44.810;10.334;2023-07-31T11:38:02;100425.06;;;32.94
45393;BMP280;31129;44.810;10.334;2023-07-31T11:40:28;100422.03;;;33.06
45393;BMP280;31129;44.810;10.334;2023-07-31T11:42:57;100413.97;;;33.16
45393;BMP280;31129;44.810;10.334;2023-07-31T11:45:27;100416.75;;;33.32
45393;BMP280;31129;44.810;10.334;2023-07-31T11:47:56;100413.84;;;33.30
45393;BMP280;31129;44.810;10.334;2023-07-31T11:50:23;100401.91;;;32.98
45393;BMP280;31129;44.810;10.334;2023-07-31T11:52:54;100403.81;;;32.93
45393;BMP280;31129;44.810;10.334;2023-07-31T11:55:21;100405.88;;;33.08
45393;BMP280;31129;44.810;10.334;2023-07-31T11:57:47;100403.44;;;33.01
45393;BMP280;31129;44.810;10.334;2023-07-31T12:00:16;100398.97;;;32.62
45393;BMP280;31129;44.810;10.334;2023-07-31T12:02:43;100396.63;;;32.90
45393;BMP280;31129;44.810;10.334;2023-07-31T12:05:12;100401.94;;;33.33
45393;BMP280;31129;44.810;10.334;2023-07-31T12:10:11;100406.66;;;33.62
45393;BMP280;31129;44.810;10.334;2023-07-31T12:12:36;100405.25;;;33.80
45393;BMP280;31129;44.810;10.334;2023-07-31T12:15:02;100406.97;;;33.52
45393;BMP280;31129;44.810;10.334;2023-07-31T12:17:27;100401.13;;;33.84
45393;BMP280;31129;44.810;10.334;2023-07-31T12:19:53;100398.97;;;34.02
45393;BMP280;31129;44.810;10.334;2023-07-31T12:22:20;100407.16;;;34.31
45393;BMP280;31129;44.810;10.334;2023-07-31T12:24:46;100390.94;;;34.14
45393;BMP280;31129;44.810;10.334;2023-07-31T12:27:18;100392.94;;;33.92
45393;BMP280;31129;44.810;10.334;2023-07-31T12:29:44;100394.66;;;34.18
45393;BMP280;31129;44.810;10.334;2023-07-31T12:32:22;100377.72;;;33.83
45393;BMP280;31129;44.810;10.334;2023-07-31T12:34:50;100378.75;;;33.92
45393;BMP280;31129;44.810;10.334;2023-07-31T12:37:16;100380.50;;;34.18
45393;BMP280;31129;44.810;10.334;2023-07-31T12:39:41;100373.69;;;34.67
45393;BMP280;31129;44.810;10.334;2023-07-31T12:42:07;100366.81;;;34.52
45393;BMP280;31129;44.810;10.334;2023-07-31T12:44:33;100363.97;;;34.52
45393;BMP280;31129;44.810;10.334;2023-07-31T12:46:58;100355.72;;;34.80
45393;BMP280;31129;44.810;10.334;2023-07-31T12:49:24;100358.31;;;34.94
45393;BMP280;31129;44.810;10.334;2023-07-31T12:51:50;100351.94;;;34.73
45393;BMP280;31129;44.810;10.334;2023-07-31T12:54:15;100355.28;;;34.89
45393;BMP280;31129;44.810;10.334;2023-07-31T12:56:41;100356.63;;;34.86
45393;BMP280;31129;44.810;10.334;2023-07-31T12:59:06;100349.84;;;34.96
45393;BMP280;31129;44.810;10.334;2023-07-31T13:01:32;100349.94;;;35.21
45393;BMP280;31129;44.810;10.334;2023-07-31T13:03:58;100337.69;;;35.15
45393;BMP280;31129;44.810;10.334;2023-07-31T13:06:25;100326.91;;;35.11
45393;BMP280;31129;44.810;10.334;2023-07-31T13:08:51;100328.25;;;35.08
45393;BMP280;31129;44.810;10.334;2023-07-31T13:11:16;100334.22;;;35.18
45393;BMP280;31129;44.810;10.334;2023-07-31T13:13:42;100327.75;;;35.37
45393;BMP280;31129;44.810;10.334;2023-07-31T13:16:07;100321.44;;;35.17
45393;BMP280;31129;44.810;10.334;2023-07-31T13:18:33;100318.44;;;35.35
45393;BMP280;31129;44.810;10.334;2023-07-31T13:20:58;100316.78;;;35.28
45393;BMP280;31129;44.810;10.334;2023-07-31T13:23:24;100322.28;;;35.45
45393;BMP280;31129;44.810;10.334;2023-07-31T13:25:49;100313.22;;;35.51
45393;BMP280;31129;44.810;10.334;2023-07-31T13:28:15;100314.00;;;35.77
45393;BMP280;31129;44.810;10.334;2023-07-31T13:30:41;100325.88;;;35.70
45393;BMP280;31129;44.810;10.334;2023-07-31T13:33:06;100315.78;;;35.90
45393;BMP280;31129;44.810;10.334;2023-07-31T13:35:32;100313.22;;;36.00
45393;BMP280;31129;44.810;10.334;2023-07-31T13:37:57;100311.75;;;35.74
45393;BMP280;31129;44.810;10.334;2023-07-31T13:40:22;100308.59;;;35.62
45393;BMP280;31129;44.810;10.334;2023-07-31T13:42:48;100302.06;;;35.83
45393;BMP280;31129;44.810;10.334;2023-07-31T13:45:14;100306.25;;;36.05
45393;BMP280;31129;44.810;10.334;2023-07-31T13:47:39;100303.41;;;36.05
45393;BMP280;31129;44.810;10.334;2023-07-31T13:50:05;100295.75;;;36.12
45393;BMP280;31129;44.810;10.334;2023-07-31T13:52:31;100295.63;;;36.06
45393;BMP280;31129;44.810;10.334;2023-07-31T13:54:56;100295.66;;;36.08
45393;BMP280;31129;44.810;10.334;2023-07-31T13:57:22;100296.28;;;36.30
45393;BMP280;31129;44.810;10.334;2023-07-31T13:59:48;100294.84;;;36.31